Time;durP1;ratioP1;P1;durP2;ratioP2;P2;SDS_P1;SDS_P2;PMS_P1;PMS_P2;Temp;Humidity;BMP_temperature;BMP_pressure;BME280_temperature;BME280_humidity;BME280_pressure;Samples;Min_cycle;Max_cycle;Signal;HPM_P1;HPM_P2
2022/10/25 00:04:46;;;;;;;4.30;1.50;;;13.50;99.90;;;;;;10389981;28;20225;-77
2022/10/25 00:09:47;;;;;;;5.00;1.47;;;13.50;99.90;;;;;;10395701;28;20251;-79
2022/10/25 00:14:47;;;;;;;5.47;1.40;;;13.50;99.90;;;;;;10393269;28;20223;-77
2022/10/25 00:19:48;;;;;;;3.17;1.20;;;13.40;99.90;;;;;;10393392;28;20710;-80
2022/10/25 00:24:48;;;;;;;5.00;1.17;;;13.40;99.90;;;;;;10394404;28;20213;-76
2022/10/25 00:29:51;;;;;;;4.53;1.40;;;13.40;99.90;;;;;;10398868;28;20217;-78
2022/10/25 00:34:55;;;;;;;4.03;1.10;;;13.30;99.90;;;;;;10393598;28;20243;-78
2022/10/25 00:39:55;;;;;;;3.57;1.40;;;13.30;99.90;;;;;;10403215;28;20262;-78
2022/10/25 00:45:00;;;;;;;4.33;1.40;;;13.30;99.90;;;;;;10387421;28;20307;-78
2022/10/25 00:50:32;;;;;;;2.67;1.03;;;13.20;99.90;;;;;;10403292;28;20220;-79
2022/10/25 00:55:35;;;;;;;6.43;1.10;;;13.20;99.90;;;;;;10430006;28;20264;-76
2022/10/25 01:00:36;;;;;;;6.20;1.43;;;13.10;99.90;;;;;;10391524;28;20229;-77
2022/10/25 01:05:37;;;;;;;3.03;1.10;;;13.10;99.90;;;;;;10395007;28;20228;-77
2022/10/25 01:10:38;;;;;;;5.50;0.93;;;13.10;99.90;;;;;;10422677;28;20236;-78
2022/10/25 01:16:06;;;;;;;3.30;1.13;;;13.10;99.90;;;;;;10400778;28;20699;-75
2022/10/25 01:21:15;;;;;;;4.00;1.10;;;13.10;99.90;;;;;;10423522;28;20223;-79
2022/10/25 01:26:34;;;;;;;5.97;1.00;;;13.10;99.90;;;;;;10391254;28;20304;-78
2022/10/25 01:31:47;;;;;;;4.33;1.00;;;13.10;99.90;;;;;;10413038;28;20549;-75
2022/10/25 01:37:13;;;;;;;4.03;1.20;;;13.10;99.90;;;;;;10423649;28;20227;-75
2022/10/25 01:42:28;;;;;;;2.30;1.13;;;13.10;99.90;;;;;;10392576;28;20225;-75
2022/10/25 01:47:38;;;;;;;7.87;1.43;;;13.10;99.90;;;;;;10394072;28;20220;-78
2022/10/25 01:52:38;;;;;;;9.07;2.20;;;13.10;99.90;;;;;;10429506;28;20246;-77
2022/10/25 01:58:06;;;;;;;2.43;0.97;;;13.10;99.90;;;;;;10442938;28;20281;-81
2022/10/25 02:03:24;;;;;;;3.20;1.33;;;13.10;99.90;;;;;;10440640;28;20217;-81
2022/10/25 02:08:38;;;;;;;4.50;1.43;;;13.10;99.90;;;;;;10448230;28;20217;-78
2022/10/25 02:14:19;;;;;;;3.87;1.10;;;13.00;99.90;;;;;;10435103;28;20683;-77
2022/10/25 02:19:28;;;;;;;7.47;1.67;;;13.00;99.90;;;;;;10411844;28;20225;-77
2022/10/25 02:24:31;;;;;;;5.53;1.23;;;13.00;99.90;;;;;;10436230;28;20220;-79
2022/10/25 02:29:33;;;;;;;5.03;1.50;;;13.00;99.90;;;;;;10414913;28;20220;-76
2022/10/25 02:34:34;;;;;;;6.37;1.20;;;12.90;99.90;;;;;;10399062;28;20213;-77
2022/10/25 02:39:34;;;;;;;5.13;1.60;;;12.90;99.90;;;;;;10438707;28;20725;-77
2022/10/25 02:44:35;;;;;;;4.50;1.20;;;12.90;99.90;;;;;;10403591;28;20231;-76
2022/10/25 02:49:36;;;;;;;5.37;1.20;;;12.90;99.90;;;;;;10404152;28;20221;-76
2022/10/25 02:54:36;;;;;;;5.30;1.37;;;13.00;99.90;;;;;;10390408;28;20347;-77
2022/10/25 02:59:37;;;;;;;4.23;1.60;;;13.00;99.90;;;;;;10409613;28;20731;-76
2022/10/25 03:04:37;;;;;;;5.77;1.53;;;13.00;99.90;;;;;;10397341;28;20572;-76
2022/10/25 03:09:38;;;;;;;7.03;1.37;;;12.90;99.90;;;;;;10433692;28;20223;-77
2022/10/25 03:14:39;;;;;;;8.67;1.47;;;12.90;99.90;;;;;;10441847;28;20265;-78
2022/10/25 03:19:39;;;;;;;6.33;1.80;;;12.90;99.90;;;;;;10401000;28;20229;-78
2022/10/25 03:24:40;;;;;;;4.73;1.57;;;12.90;99.90;;;;;;10436148;28;20254;-80
2022/10/25 03:29:40;;;;;;;5.17;1.70;;;12.90;99.90;;;;;;10447096;28;20748;-77
2022/10/25 03:34:41;;;;;;;4.50;1.23;;;12.80;99.90;;;;;;10436428;28;20224;-78
2022/10/25 03:39:41;;;;;;;5.63;1.80;;;12.80;99.90;;;;;;10427476;28;20232;-79
2022/10/25 03:44:42;;;;;;;4.23;1.13;;;12.70;99.90;;;;;;10440098;28;20220;-79
2022/10/25 03:49:43;;;;;;;5.87;1.50;;;12.70;99.90;;;;;;10400796;28;20246;-78
2022/10/25 03:54:43;;;;;;;4.53;1.90;;;12.70;99.90;;;;;;10397909;28;20710;-78
2022/10/25 03:59:44;;;;;;;7.00;1.70;;;12.70;99.90;;;;;;10396258;28;20232;-77
2022/10/25 04:04:44;;;;;;;3.60;1.60;;;12.60;99.90;;;;;;10434261;28;20227;-75
2022/10/25 04:09:46;;;;;;;7.17;1.63;;;12.60;99.90;;;;;;10401542;28;20687;-77
2022/10/25 04:14:47;;;;;;;4.43;1.50;;;12.60;99.90;;;;;;10396784;28;20694;-75
2022/10/25 04:19:47;;;;;;;8.50;1.70;;;12.50;99.90;;;;;;10398264;28;20240;-82
2022/10/25 04:24:49;;;;;;;3.03;1.50;;;12.50;99.90;;;;;;10416710;28;20220;-81
2022/10/25 04:29:50;;;;;;;5.20;2.10;;;12.50;99.90;;;;;;10400023;28;20827;-73
2022/10/25 04:34:51;;;;;;;5.47;1.30;;;12.40;99.90;;;;;;10437625;28;20313;-74
2022/10/25 04:39:51;;;;;;;5.53;1.90;;;12.40;99.90;;;;;;10403963;28;20213;-77
2022/10/25 04:44:55;;;;;;;6.93;1.90;;;12.50;99.90;;;;;;10427000;28;20220;-73
2022/10/25 04:49:57;;;;;;;7.07;2.23;;;12.50;99.90;;;;;;10406162;28;20219;-72
2022/10/25 04:54:58;;;;;;;8.13;1.90;;;12.60;99.90;;;;;;10427964;28;20224;-73
2022/10/25 04:59:59;;;;;;;9.40;1.93;;;12.60;99.90;;;;;;10384207;28;20879;-75
2022/10/25 05:05:00;;;;;;;9.53;2.00;;;12.60;99.90;;;;;;10402876;28;20319;-70
2022/10/25 05:10:04;;;;;;;8.07;2.20;;;12.70;99.90;;;;;;10397745;28;20230;-69
2022/10/25 05:15:05;;;;;;;7.60;2.50;;;12.70;99.90;;;;;;10426755;28;20216;-73
2022/10/25 05:20:06;;;;;;;9.43;1.90;;;12.60;99.90;;;;;;10389476;28;20191;-75
2022/10/25 05:25:07;;;;;;;5.33;1.90;;;12.60;99.90;;;;;;10442607;28;20558;-82
2022/10/25 05:30:08;;;;;;;9.33;2.07;;;12.50;99.90;;;;;;10399407;28;20661;-82
2022/10/25 05:35:09;;;;;;;7.93;2.40;;;12.50;99.90;;;;;;10400058;28;20698;-78
2022/10/25 05:40:10;;;;;;;5.47;2.10;;;12.40;99.90;;;;;;10464289;28;20183;-79
2022/10/25 05:45:13;;;;;;;6.87;1.83;;;12.40;99.90;;;;;;10448453;28;20598;-80
2022/10/25 05:50:14;;;;;;;8.67;2.17;;;12.30;99.90;;;;;;10393619;28;20699;-80
2022/10/25 05:55:16;;;;;;;9.57;2.30;;;12.40;99.90;;;;;;10448616;28;20242;-74
2022/10/25 06:00:17;;;;;;;12.60;2.50;;;12.30;99.90;;;;;;10396174;28;20185;-74
2022/10/25 06:05:17;;;;;;;7.47;2.50;;;12.40;99.90;;;;;;10426376;28;20682;-74
2022/10/25 06:10:18;;;;;;;7.83;2.60;;;12.40;99.90;;;;;;10388277;28;20230;-75
2022/10/25 06:15:19;;;;;;;5.40;2.40;;;12.40;99.90;;;;;;10398041;28;20216;-75
2022/10/25 06:20:19;;;;;;;11.63;2.97;;;12.60;99.90;;;;;;10440830;28;20214;-75
2022/10/25 06:25:20;;;;;;;8.27;2.47;;;12.70;99.90;;;;;;10438273;28;20196;-72
2022/10/25 06:30:20;;;;;;;6.30;2.50;;;12.80;99.90;;;;;;10412597;28;20192;-75
2022/10/25 06:35:21;;;;;;;8.37;2.73;;;13.00;99.90;;;;;;10406898;28;20216;-76
2022/10/25 06:40:21;;;;;;;9.63;2.20;;;13.20;99.90;;;;;;10415022;28;20688;-76
2022/10/25 06:45:23;;;;;;;8.10;2.40;;;13.40;99.90;;;;;;10441689;28;20192;-77
2022/10/25 06:50:23;;;;;;;8.27;2.50;;;13.60;99.90;;;;;;10446641;28;20183;-75
2022/10/25 06:55:24;;;;;;;7.47;2.33;;;13.70;99.90;;;;;;10412388;28;20232;-77
2022/10/25 07:00:24;;;;;;;12.20;2.70;;;13.70;99.90;;;;;;10423193;28;20219;-75
2022/10/25 07:05:26;;;;;;;8.00;2.30;;;13.70;99.90;;;;;;10415467;28;20626;-76
2022/10/25 07:10:26;;;;;;;4.33;1.90;;;13.80;99.90;;;;;;10449001;28;20227;-76
2022/10/25 07:15:27;;;;;;;5.17;1.80;;;13.80;99.90;;;;;;10448241;28;20730;-76
2022/10/25 07:20:27;;;;;;;7.80;2.90;;;13.80;99.90;;;;;;10454014;28;20593;-75
2022/10/25 07:25:28;;;;;;;7.50;2.53;;;13.90;99.90;;;;;;10447203;28;20262;-75
2022/10/25 07:30:29;;;;;;;10.57;2.30;;;14.10;99.90;;;;;;10439612;28;20247;-75
2022/10/25 07:35:31;;;;;;;5.50;1.77;;;14.40;99.90;;;;;;10433583;28;20240;-77
2022/10/25 07:40:32;;;;;;;9.00;2.30;;;14.80;99.90;;;;;;10449423;28;20230;-76
2022/10/25 07:45:34;;;;;;;6.80;2.47;;;15.20;99.90;;;;;;10451906;28;20475;-77
2022/10/25 07:50:34;;;;;;;5.63;2.33;;;16.00;99.90;;;;;;10451324;28;20228;-76
2022/10/25 07:55:35;;;;;;;8.07;2.40;;;16.40;99.90;;;;;;10445145;28;20231;-76
2022/10/25 08:00:36;;;;;;;9.07;2.20;;;16.70;99.90;;;;;;10449839;28;20282;-75
2022/10/25 08:05:36;;;;;;;7.50;2.20;;;16.80;99.90;;;;;;10442913;28;20223;-77
2022/10/25 08:10:37;;;;;;;9.43;2.23;;;16.70;99.90;;;;;;10449878;28;20255;-75
2022/10/25 08:15:39;;;;;;;4.83;2.00;;;16.60;99.90;;;;;;10444337;28;20230;-77
2022/10/25 08:20:40;;;;;;;8.77;2.40;;;16.60;99.90;;;;;;10442062;28;20227;-77
2022/10/25 08:25:44;;;;;;;9.30;2.23;;;16.70;99.90;;;;;;10446569;28;20713;-77
2022/10/25 08:30:44;;;;;;;16.07;2.47;;;16.60;99.90;;;;;;10444619;28;20726;-76
2022/10/25 08:35:45;;;;;;;5.87;2.20;;;16.60;99.90;;;;;;10438445;28;20242;-75
2022/10/25 08:40:50;;;;;;;7.20;2.47;;;16.90;99.90;;;;;;10442923;28;20219;-75
2022/10/25 08:46:01;;;;;;;4.63;2.17;;;17.80;99.90;;;;;;10442861;28;20227;-77
2022/10/25 08:51:23;;;;;;;7.60;2.20;;;18.20;99.90;;;;;;10438488;28;20220;-74
2022/10/25 08:56:25;;;;;;;5.07;1.80;;;18.50;99.90;;;;;;10440486;28;20310;-75
2022/10/25 09:01:37;;;;;;;10.20;2.67;;;18.70;99.90;;;;;;10441890;28;20232;-77
2022/10/25 09:07:07;;;;;;;5.37;2.00;;;21.60;99.90;;;;;;10449660;28;20253;-76
2022/10/25 09:12:39;;;;;;;11.53;2.97;;;22.60;99.90;;;;;;10437059;28;20909;-75
2022/10/25 09:17:48;;;;;;;7.47;2.43;;;21.50;99.90;;;;;;10450217;28;20241;-74
2022/10/25 09:23:14;;;;;;;6.97;2.23;;;20.30;99.90;;;;;;10444567;28;20284;-76
2022/10/25 09:28:23;;;;;;;6.13;1.90;;;19.40;99.90;;;;;;10441303;28;20691;-75
2022/10/25 09:33:29;;;;;;;6.00;1.87;;;19.00;99.90;;;;;;10439611;28;20216;-77
2022/10/25 09:38:40;;;;;;;6.83;2.10;;;19.20;99.90;;;;;;10445346;28;20649;-76
2022/10/25 09:44:08;;;;;;;4.47;1.83;;;20.20;99.90;;;;;;10436387;28;20552;-75
2022/10/25 09:49:47;;;;;;;8.27;2.47;;;22.20;99.90;;;;;;10425161;28;20226;-75
2022/10/25 09:55:07;;;;;;;7.53;2.30;;;23.90;99.90;;;;;;10427946;28;20241;-74
2022/10/25 10:00:13;;;;;;;5.10;1.57;;;23.50;99.90;;;;;;10397801;28;20214;-76
2022/10/25 10:05:20;;;;;;;8.00;1.93;;;22.20;99.90;;;;;;10446068;28;20560;-75
2022/10/25 10:10:26;;;;;;;4.90;1.87;;;21.20;99.90;;;;;;10442633;28;20675;-75
2022/10/25 10:15:29;;;;;;;4.13;1.80;;;20.60;99.90;;;;;;10447676;28;20749;-75
2022/10/25 10:20:30;;;;;;;6.93;1.90;;;20.50;99.90;;;;;;10429973;28;20222;-75
2022/10/25 10:25:30;;;;;;;9.57;2.10;;;20.40;99.90;;;;;;10453688;28;20298;-74
2022/10/25 10:30:36;;;;;;;6.37;2.47;;;20.30;99.90;;;;;;10443760;28;20250;-76
2022/10/25 10:35:37;;;;;;;7.53;1.83;;;20.20;99.90;;;;;;10451952;28;20316;-75
2022/10/25 10:40:37;;;;;;;6.10;1.83;;;20.00;99.90;;;;;;10452313;28;20214;-75
2022/10/25 10:45:48;;;;;;;8.17;1.83;;;19.80;99.90;;;;;;10448133;28;20226;-77
2022/10/25 10:50:50;;;;;;;6.37;2.30;;;19.90;99.90;;;;;;10434636;28;20233;-76
2022/10/25 10:55:53;;;;;;;4.47;1.70;;;20.80;99.90;;;;;;10447253;28;20226;-75
2022/10/25 11:01:07;;;;;;;7.13;2.47;;;21.10;99.90;;;;;;10451130;28;20601;-77
2022/10/25 11:06:25;;;;;;;6.30;2.07;;;20.90;99.90;;;;;;10429699;28;20259;-77
2022/10/25 11:11:26;;;;;;;4.33;1.70;;;20.70;99.90;;;;;;10444168;28;20219;-77
2022/10/25 11:16:34;;;;;;;5.00;1.40;;;20.70;99.90;;;;;;10452622;28;20261;-75
2022/10/25 11:21:50;;;;;;;6.70;1.50;;;21.10;99.90;;;;;;10439411;28;20219;-76
2022/10/25 11:27:21;;;;;;;6.07;1.60;;;21.30;99.90;;;;;;10446257;28;20676;-77
2022/10/25 11:32:27;;;;;;;4.73;1.70;;;21.20;99.90;;;;;;10449337;28;20235;-76
2022/10/25 11:37:45;;;;;;;6.13;1.73;;;20.90;99.90;;;;;;10444309;28;20741;-76
2022/10/25 11:42:54;;;;;;;6.43;1.60;;;20.60;99.90;;;;;;10439928;28;20681;-75
2022/10/25 11:48:17;;;;;;;5.53;1.40;;;20.40;99.90;;;;;;10443203;28;20228;-75
2022/10/25 11:53:56;;;;;;;3.73;2.00;;;20.30;99.90;;;;;;10438792;28;20595;-76
2022/10/25 11:59:39;;;;;;;5.23;1.87;;;20.40;99.90;;;;;;10441597;28;20237;-77
2022/10/25 12:04:52;;;;;;;4.17;1.67;;;20.60;99.90;;;;;;10443227;28;20225;-76
2022/10/25 12:10:13;;;;;;;5.60;2.00;;;20.30;99.90;;;;;;10452205;28;20272;-74
2022/10/25 12:15:20;;;;;;;4.13;1.73;;;19.80;99.90;;;;;;10432789;28;20319;-75
2022/10/25 12:20:26;;;;;;;4.37;2.00;;;19.70;99.90;;;;;;10401259;28;20284;-75
2022/10/25 12:25:35;;;;;;;6.40;2.07;;;19.50;99.90;;;;;;10388220;28;20691;-74
2022/10/25 12:30:41;;;;;;;7.13;2.50;;;19.70;99.90;;;;;;10384239;28;20301;-74
2022/10/25 12:35:50;;;;;;;7.73;2.00;;;19.80;99.90;;;;;;10389608;28;20235;-74
2022/10/25 12:40:55;;;;;;;4.30;1.40;;;19.70;99.90;;;;;;10388812;28;20222;-74
2022/10/25 12:46:23;;;;;;;9.50;1.77;;;19.60;99.90;;;;;;10400649;28;20218;-74
2022/10/25 12:51:49;;;;;;;7.33;2.10;;;19.20;99.90;;;;;;10406083;28;20237;-75
2022/10/25 12:57:20;;;;;;;5.43;1.90;;;19.00;99.90;;;;;;10430756;28;20232;-74
2022/10/25 13:02:58;;;;;;;5.70;1.87;;;19.00;99.90;;;;;;10416662;28;20901;-75
2022/10/25 13:08:02;;;;;;;6.43;1.87;;;18.90;99.90;;;;;;10429403;28;20445;-74
2022/10/25 13:13:15;;;;;;;5.77;1.80;;;18.90;99.90;;;;;;10428429;28;20246;-75
2022/10/25 13:18:38;;;;;;;5.77;1.67;;;19.00;99.90;;;;;;10442449;28;20482;-78
2022/10/25 13:23:41;;;;;;;5.00;1.30;;;19.30;99.90;;;;;;10435989;28;20220;-79
2022/10/25 13:28:49;;;;;;;5.43;1.60;;;19.40;99.90;;;;;;10446165;28;20227;-74
2022/10/25 13:34:13;;;;;;;4.30;1.70;;;19.50;99.90;;;;;;10440360;28;20602;-74
2022/10/25 13:39:35;;;;;;;4.60;1.23;;;19.60;99.90;;;;;;10446165;28;20270;-72
2022/10/25 13:44:48;;;;;;;4.33;1.40;;;19.40;99.90;;;;;;10442384;28;20224;-74
2022/10/25 13:49:48;;;;;;;4.63;1.17;;;19.10;99.90;;;;;;10443517;28;20302;-72
2022/10/25 13:54:53;;;;;;;3.47;1.33;;;18.90;99.90;;;;;;10444114;28;20633;-72
2022/10/25 13:59:53;;;;;;;5.43;1.37;;;18.70;99.90;;;;;;10436795;28;20700;-73
2022/10/25 14:04:54;;;;;;;4.07;1.53;;;18.60;99.90;;;;;;10444825;28;20212;-73
2022/10/25 14:09:56;;;;;;;4.50;1.30;;;18.40;99.90;;;;;;10441038;28;20224;-78
2022/10/25 14:15:47;;;;;;;4.53;1.40;;;18.30;99.90;;;;;;10449720;28;20248;-79
2022/10/25 14:21:10;;;;;;;1.80;0.93;;;18.20;99.90;;;;;;10442184;28;20511;-80
2022/10/25 14:26:15;;;;;;;4.87;1.07;;;18.10;99.90;;;;;;10436010;28;20256;-79
2022/10/25 14:31:20;;;;;;;4.60;1.23;;;18.30;99.90;;;;;;10436338;28;20546;-80
2022/10/25 14:36:29;;;;;;;2.53;0.87;;;18.30;99.90;;;;;;10435480;28;20277;-80
2022/10/25 14:41:32;;;;;;;2.87;0.80;;;18.30;99.90;;;;;;10429335;28;20279;-79
2022/10/25 14:46:33;;;;;;;2.67;0.90;;;18.30;99.90;;;;;;10445889;28;20232;-79
2022/10/25 14:51:36;;;;;;;1.93;0.93;;;18.20;99.90;;;;;;10436538;28;20273;-80
2022/10/25 14:56:43;;;;;;;2.13;0.90;;;18.10;99.90;;;;;;10442231;28;20287;-80
2022/10/25 15:02:04;;;;;;;2.97;1.00;;;18.00;99.90;;;;;;10431107;28;20713;-79
2022/10/25 15:07:06;;;;;;;5.07;1.30;;;18.10;99.90;;;;;;10448953;28;20232;-80
2022/10/25 15:12:28;;;;;;;3.43;1.20;;;18.00;99.90;;;;;;10445523;28;20310;-80
2022/10/25 15:17:30;;;;;;;2.90;0.80;;;17.80;99.90;;;;;;10448880;28;20225;-79
2022/10/25 15:22:49;;;;;;;0.97;0.60;;;17.70;99.90;;;;;;10444109;28;20240;-80
2022/10/25 15:27:51;;;;;;;2.70;0.90;;;17.50;99.90;;;;;;10449111;28;20215;-80
2022/10/25 15:32:51;;;;;;;3.93;1.03;;;17.40;99.90;;;;;;10444829;28;20255;-75
2022/10/25 15:37:55;;;;;;;3.13;0.70;;;17.20;99.90;;;;;;10441014;28;20644;-77
2022/10/25 15:42:56;;;;;;;3.77;1.47;;;17.20;99.90;;;;;;10455509;28;20599;-77
2022/10/25 15:47:57;;;;;;;6.03;1.07;;;17.10;99.90;;;;;;10440783;28;20243;-77
2022/10/25 15:52:59;;;;;;;3.70;1.00;;;17.00;99.90;;;;;;10435556;28;20224;-74
2022/10/25 15:58:00;;;;;;;2.83;1.10;;;16.90;99.90;;;;;;10434040;28;20227;-79
2022/10/25 16:03:02;;;;;;;4.43;1.80;;;16.80;99.90;;;;;;10445790;28;20212;-78
2022/10/25 16:08:04;;;;;;;2.93;1.70;;;16.70;99.90;;;;;;10446486;28;20226;-77
2022/10/25 16:13:10;;;;;;;4.30;1.73;;;16.70;99.90;;;;;;10444453;28;20766;-76
2022/10/25 16:18:11;;;;;;;3.57;1.53;;;16.60;99.90;;;;;;10441678;28;20215;-79
2022/10/25 16:23:13;;;;;;;4.83;1.40;;;16.40;99.90;;;;;;10439196;28;20285;-76
2022/10/25 16:28:14;;;;;;;3.80;1.57;;;16.20;99.90;;;;;;10435301;28;20220;-77
2022/10/25 16:33:14;;;;;;;5.13;1.20;;;16.10;99.90;;;;;;10432741;28;20582;-80
2022/10/25 16:38:15;;;;;;;2.70;1.13;;;15.90;99.90;;;;;;10430423;28;20232;-77
2022/10/25 16:43:16;;;;;;;3.27;1.50;;;15.70;99.90;;;;;;10402106;28;20239;-80
2022/10/25 16:48:16;;;;;;;5.40;2.40;;;15.50;99.90;;;;;;10406195;28;20789;-78
2022/10/25 16:53:17;;;;;;;10.60;4.17;;;15.30;99.90;;;;;;10383099;28;20219;-79
2022/10/25 16:58:18;;;;;;;5.20;2.60;;;15.10;99.90;;;;;;10424188;28;20887;-79
2022/10/25 17:03:18;;;;;;;3.83;1.93;;;15.10;99.90;;;;;;10405626;28;20722;-78
2022/10/25 17:08:19;;;;;;;5.87;1.90;;;15.10;99.90;;;;;;10412533;28;20558;-77
2022/10/25 17:13:23;;;;;;;3.47;1.83;;;15.00;99.90;;;;;;10408685;28;20224;-78
2022/10/25 17:18:25;;;;;;;5.30;2.10;;;14.90;99.90;;;;;;10397981;28;20306;-77
2022/10/25 17:23:26;;;;;;;6.73;2.30;;;14.80;99.90;;;;;;10406612;28;20209;-78
2022/10/25 17:28:30;;;;;;;4.40;2.67;;;14.60;99.90;;;;;;10395713;28;20223;-78
2022/10/25 17:33:30;;;;;;;4.40;1.90;;;14.40;99.90;;;;;;10392407;28;20743;-77
2022/10/25 17:38:31;;;;;;;5.27;2.23;;;14.30;99.90;;;;;;10396293;28;20220;-78
2022/10/25 17:43:36;;;;;;;4.47;2.40;;;14.10;99.90;;;;;;10393483;28;20227;-77
2022/10/25 17:48:37;;;;;;;4.33;2.10;;;14.00;99.90;;;;;;10405791;28;20644;-77
2022/10/25 17:53:38;;;;;;;6.47;2.67;;;13.90;99.90;;;;;;10403909;28;20228;-77
2022/10/25 17:58:43;;;;;;;8.80;2.47;;;13.80;99.90;;;;;;10393767;28;20656;-77
2022/10/25 18:03:44;;;;;;;5.17;2.30;;;13.70;99.90;;;;;;10393834;28;20249;-77
2022/10/25 18:08:52;;;;;;;8.87;3.30;;;13.70;99.90;;;;;;10393103;28;20758;-76
2022/10/25 18:13:58;;;;;;;10.50;3.80;;;13.60;99.90;;;;;;10392897;28;20834;-77
2022/10/25 18:19:01;;;;;;;15.63;3.90;;;13.60;99.90;;;;;;10400637;28;20247;-76
2022/10/25 18:24:03;;;;;;;10.43;3.17;;;13.70;99.90;;;;;;10432872;28;20222;-77
2022/10/25 18:29:04;;;;;;;9.50;4.00;;;13.90;99.90;;;;;;10448394;28;20222;-78
2022/10/25 18:34:05;;;;;;;6.97;4.20;;;13.90;99.90;;;;;;10452606;28;20227;-76
2022/10/25 18:39:05;;;;;;;9.57;4.10;;;13.90;99.90;;;;;;10410234;28;20598;-78
2022/10/25 18:44:06;;;;;;;8.33;4.17;;;13.80;99.90;;;;;;10433704;28;20207;-77
2022/10/25 18:49:11;;;;;;;8.90;3.90;;;13.70;99.90;;;;;;10430356;28;20262;-76
2022/10/25 18:54:12;;;;;;;8.23;3.50;;;13.60;99.90;;;;;;10448193;28;20228;-76
2022/10/25 18:59:12;;;;;;;7.20;3.70;;;13.60;99.90;;;;;;10435403;28;20227;-76
2022/10/25 19:04:13;;;;;;;6.90;3.03;;;13.50;99.90;;;;;;10439769;28;20256;-77
2022/10/25 19:09:14;;;;;;;7.27;3.20;;;13.40;99.90;;;;;;10442090;28;20254;-75
2022/10/25 19:14:14;;;;;;;13.00;3.97;;;13.50;99.90;;;;;;10447926;28;20223;-76
2022/10/25 19:19:15;;;;;;;11.80;3.33;;;13.50;99.90;;;;;;10446423;28;20648;-76
2022/10/25 19:24:16;;;;;;;12.87;3.30;;;13.50;99.90;;;;;;10439985;28;20298;-75
2022/10/25 19:29:16;;;;;;;14.97;3.73;;;13.40;99.90;;;;;;10434659;28;20227;-75
2022/10/25 19:34:17;;;;;;;13.50;3.03;;;13.40;99.90;;;;;;10412931;28;20316;-75
2022/10/25 19:39:18;;;;;;;3.93;2.43;;;13.50;99.90;;;;;;10402646;28;20711;-74
2022/10/25 19:44:19;;;;;;;5.53;3.30;;;13.60;99.90;;;;;;10409759;28;20247;-75
2022/10/25 19:49:19;;;;;;;7.37;3.07;;;13.70;99.90;;;;;;10407818;28;20215;-76
2022/10/25 19:54:21;;;;;;;6.43;2.60;;;13.60;99.90;;;;;;10409238;28;20223;-75
2022/10/25 19:59:22;;;;;;;8.60;2.73;;;13.50;99.90;;;;;;10431100;28;20227;-74
2022/10/25 20:04:23;;;;;;;5.27;2.23;;;13.50;99.90;;;;;;10450337;28;20211;-76
2022/10/25 20:09:23;;;;;;;5.47;2.40;;;13.40;99.90;;;;;;10441815;28;20219;-75
2022/10/25 20:14:24;;;;;;;7.30;2.60;;;13.30;99.90;;;;;;10403167;28;20217;-75
2022/10/25 20:19:24;;;;;;;8.07;3.13;;;13.30;99.90;;;;;;10435232;28;20582;-76
2022/10/25 20:24:28;;;;;;;7.23;3.03;;;13.20;99.90;;;;;;10403970;28;20214;-77
2022/10/25 20:29:28;;;;;;;7.90;3.03;;;13.30;99.90;;;;;;10393254;28;20582;-78
2022/10/25 20:34:29;;;;;;;7.20;2.83;;;13.40;99.90;;;;;;10401198;28;20224;-76
2022/10/25 20:39:30;;;;;;;10.47;3.27;;;13.40;99.90;;;;;;10396776;28;20221;-76
2022/10/25 20:44:30;;;;;;;6.70;2.83;;;13.40;99.90;;;;;;10391430;28;20240;-74
2022/10/25 20:49:31;;;;;;;9.20;3.30;;;13.30;99.90;;;;;;10403184;28;20230;-76
2022/10/25 20:54:31;;;;;;;9.63;3.70;;;13.40;99.90;;;;;;10400330;28;20224;-75
2022/10/25 20:59:32;;;;;;;6.90;3.50;;;13.30;99.90;;;;;;10399083;28;20293;-75
2022/10/25 21:04:37;;;;;;;6.37;3.60;;;13.30;99.90;;;;;;10392697;28;20236;-78
2022/10/25 21:09:37;;;;;;;12.57;5.50;;;13.20;99.90;;;;;;10401431;28;20235;-77
2022/10/25 21:14:38;;;;;;;7.60;4.13;;;13.20;99.90;;;;;;10394926;28;20217;-78
2022/10/25 21:19:38;;;;;;;10.50;3.67;;;13.20;99.90;;;;;;10398105;28;20224;-76
2022/10/25 21:24:43;;;;;;;11.30;3.40;;;13.20;99.90;;;;;;10398565;28;20215;-77
2022/10/25 21:29:44;;;;;;;7.00;3.40;;;13.20;99.90;;;;;;10438807;28;20227;-77
2022/10/25 21:34:44;;;;;;;10.13;3.70;;;13.20;99.90;;;;;;10402436;28;20224;-74
2022/10/25 21:39:46;;;;;;;32.80;22.77;;;13.20;99.90;;;;;;10399697;28;20236;-77
2022/10/25 21:44:47;;;;;;;8.17;3.30;;;13.20;99.90;;;;;;10443617;28;20261;-75
2022/10/25 21:49:47;;;;;;;7.57;3.00;;;13.30;99.90;;;;;;10449178;28;20874;-76
2022/10/25 21:54:48;;;;;;;5.40;2.80;;;13.30;99.90;;;;;;10453454;28;20590;-75
2022/10/25 21:59:49;;;;;;;6.00;2.47;;;13.40;99.90;;;;;;10459362;28;20228;-76
2022/10/25 22:04:49;;;;;;;7.87;2.97;;;13.40;99.90;;;;;;10456324;28;20261;-74
2022/10/25 22:09:50;;;;;;;5.80;3.27;;;13.40;99.90;;;;;;10455608;28;20281;-75
2022/10/25 22:14:51;;;;;;;8.77;3.00;;;13.40;99.90;;;;;;10448301;28;20220;-75
2022/10/25 22:19:51;;;;;;;5.47;2.63;;;13.40;99.90;;;;;;10450505;28;20239;-75
2022/10/25 22:24:52;;;;;;;10.63;3.77;;;13.40;99.90;;;;;;10447788;28;20226;-74
2022/10/25 22:29:52;;;;;;;7.80;2.87;;;13.30;99.90;;;;;;10450221;28;20232;-75
2022/10/25 22:34:53;;;;;;;8.87;3.20;;;13.30;99.90;;;;;;10438458;28;20716;-74
2022/10/25 22:39:53;;;;;;;5.10;2.47;;;13.30;99.90;;;;;;10449613;28;20215;-74
2022/10/25 22:44:54;;;;;;;10.60;3.00;;;13.30;99.90;;;;;;10448157;28;20266;-74
2022/10/25 22:49:55;;;;;;;8.27;3.10;;;13.30;99.90;;;;;;10430487;28;20212;-75
2022/10/25 22:54:57;;;;;;;5.90;2.40;;;13.30;99.90;;;;;;10408029;28;20745;-75
2022/10/25 22:59:57;;;;;;;10.43;2.60;;;13.30;99.90;;;;;;10405475;28;20270;-76
2022/10/25 23:04:58;;;;;;;5.83;2.53;;;13.30;99.90;;;;;;10411276;28;20295;-77
2022/10/25 23:09:59;;;;;;;6.47;2.77;;;13.30;99.90;;;;;;10404384;28;20235;-79
2022/10/25 23:14:59;;;;;;;7.93;2.60;;;13.30;99.90;;;;;;10400550;28;20247;-77
2022/10/25 23:20:00;;;;;;;6.37;2.80;;;13.30;99.90;;;;;;10403520;28;20239;-75
2022/10/25 23:25:01;;;;;;;7.30;2.50;;;13.30;99.90;;;;;;10394916;28;20220;-75
2022/10/25 23:30:01;;;;;;;4.10;2.40;;;13.30;99.90;;;;;;10406467;28;20224;-77
2022/10/25 23:35:02;;;;;;;6.83;2.70;;;13.30;99.90;;;;;;10393297;28;20698;-77
2022/10/25 23:40:07;;;;;;;4.27;2.50;;;13.30;99.90;;;;;;10401215;28;20247;-77
2022/10/25 23:45:08;;;;;;;6.40;2.43;;;13.20;99.90;;;;;;10435867;28;20216;-77
2022/10/25 23:50:09;;;;;;;10.47;3.20;;;13.20;99.90;;;;;;10411859;28;20251;-77
2022/10/25 23:55:11;;;;;;;5.67;2.80;;;13.20;99.90;;;;;;10398407;28;20648;-77
